Ontonagon, Michigan
Current Conditions -  °F | °C
As of 4:53 PM on Friday 31 Oct 2014 (Local Time) from KCMX Reporting Station
Overcast Overcast  
Wind Chill: 24°   Ceiling: 3400
Heat Index: 32°   Visibility: 10mi
Dew Point: 21°   Wind: 9mph
Humidity: 64%   Direction: 340°NNW
Pressure: 30.42"   Gusts: NA
Location:  46.87°N, 89.31°W
Report Text: KCMX 312053Z AUTO 34008KT 10SM OVC034 00/M06 A3042 RMK AO2 SLP317 60000 T00001061 58006
Loading
Personal Weather Stations






























Interactive Weather Map New forecast layout! Learn more

10-Day Weather Forecast

Advertisements
Track Severe Weather on mobile